FLIGHTPLAN FILING NOTAM - BRIEFING WEATHER - BRIEFING SMS/EMAIL SERVICE HELPDESK
Wetter Brifing
Wetter

Meteorological Information:

The meteorological data are provided by the state-mandated MET services Austria (Austro Control) and Switzerland (MeteoSchweiz).

Once registered worldwide meteorological data in fomr of charts and text are available:

bullet METARs, TAFs...
SALOWW 281250Z 16016KT 130V190 9999 FEW030 08/M00 Q1021 NOSIG==
FCLOWW 281200Z 281322 15015G25KT CAVOK==
bullet IFR-, VFR charts
Wetterkarte
bullet Satellite-, Radar pictures
Wetterkarte
bullet Area forecasts
A: FXOS41 LOWW 051200
FLUGWETTERUEBERSICHT OESTERREICH,
gueltig fuer den Donauraum und die Regionen noerdlich der
Donau sowie Alpenvorland und Alpenostrand.
Herausgegeben am Dienstag, 5.5.2009 um 14:00 Uhr,
Vorhersage bis morgen abend...
bullet Forecasts for gliding and ballooning ... and much more ...

All of these can be accessed conveniently via Internet and at all Austrian airports.

spacer